sensor_id;sensor_type;location;lat;lon;timestamp;P1;durP1;ratioP1;P2;durP2;ratioP2
579;SDS011;276;48.392;9.950;2022-12-31T00:01:41;2.00;;;1.50;;
579;SDS011;276;48.392;9.950;2022-12-31T00:04:09;2.47;;;2.27;;
579;SDS011;276;48.392;9.950;2022-12-31T00:06:34;2.03;;;1.93;;
579;SDS011;276;48.392;9.950;2022-12-31T00:09:03;2.03;;;1.93;;
579;SDS011;276;48.392;9.950;2022-12-31T00:11:32;1.90;;;1.80;;
579;SDS011;276;48.392;9.950;2022-12-31T00:13:59;2.60;;;1.80;;
579;SDS011;276;48.392;9.950;2022-12-31T00:16:28;1.90;;;1.80;;
579;SDS011;276;48.392;9.950;2022-12-31T00:19:00;2.90;;;1.80;;
579;SDS011;276;48.392;9.950;2022-12-31T00:21:31;1.60;;;1.50;;
579;SDS011;276;48.392;9.950;2022-12-31T00:23:57;1.53;;;1.43;;
579;SDS011;276;48.392;9.950;2022-12-31T00:26:25;1.87;;;1.57;;
579;SDS011;276;48.392;9.950;2022-12-31T00:28:55;1.40;;;1.30;;
579;SDS011;276;48.392;9.950;2022-12-31T00:31:23;2.27;;;2.17;;
579;SDS011;276;48.392;9.950;2022-12-31T00:33:54;1.70;;;1.60;;
579;SDS011;276;48.392;9.950;2022-12-31T00:36:30;2.37;;;2.17;;
579;SDS011;276;48.392;9.950;2022-12-31T00:38:58;1.90;;;1.80;;
579;SDS011;276;48.392;9.950;2022-12-31T00:41:27;1.70;;;1.60;;
579;SDS011;276;48.392;9.950;2022-12-31T00:43:53;1.87;;;1.77;;
579;SDS011;276;48.392;9.950;2022-12-31T00:46:21;1.93;;;1.80;;
579;SDS011;276;48.392;9.950;2022-12-31T00:48:50;1.30;;;1.20;;
579;SDS011;276;48.392;9.950;2022-12-31T00:51:16;1.70;;;1.30;;
579;SDS011;276;48.392;9.950;2022-12-31T00:53:46;1.87;;;1.33;;
579;SDS011;276;48.392;9.950;2022-12-31T00:56:16;1.70;;;1.60;;
579;SDS011;276;48.392;9.950;2022-12-31T00:58:43;1.50;;;1.40;;
579;SDS011;276;48.392;9.950;2022-12-31T01:03:46;2.00;;;1.60;;
579;SDS011;276;48.392;9.950;2022-12-31T01:06:13;1.53;;;1.43;;
579;SDS011;276;48.392;9.950;2022-12-31T01:08:38;1.50;;;1.40;;
579;SDS011;276;48.392;9.950;2022-12-31T01:11:09;1.33;;;1.23;;
579;SDS011;276;48.392;9.950;2022-12-31T01:13:57;1.80;;;1.33;;
579;SDS011;276;48.392;9.950;2022-12-31T01:16:30;1.50;;;1.40;;
579;SDS011;276;48.392;9.950;2022-12-31T01:18:59;1.60;;;1.50;;
579;SDS011;276;48.392;9.950;2022-12-31T01:21:32;1.40;;;1.30;;
579;SDS011;276;48.392;9.950;2022-12-31T01:24:01;1.07;;;1.07;;
579;SDS011;276;48.392;9.950;2022-12-31T01:26:29;2.00;;;1.30;;
579;SDS011;276;48.392;9.950;2022-12-31T01:28:55;1.10;;;1.10;;
579;SDS011;276;48.392;9.950;2022-12-31T01:31:22;1.83;;;1.20;;
579;SDS011;276;48.392;9.950;2022-12-31T01:33:52;1.63;;;1.53;;
579;SDS011;276;48.392;9.950;2022-12-31T01:36:23;1.30;;;1.20;;
579;SDS011;276;48.392;9.950;2022-12-31T01:38:53;2.13;;;2.00;;
579;SDS011;276;48.392;9.950;2022-12-31T01:41:24;2.00;;;1.50;;
579;SDS011;276;48.392;9.950;2022-12-31T01:46:50;2.03;;;1.93;;
579;SDS011;276;48.392;9.950;2022-12-31T01:49:34;1.90;;;1.80;;
579;SDS011;276;48.392;9.950;2022-12-31T01:52:09;1.90;;;1.80;;
579;SDS011;276;48.392;9.950;2022-12-31T01:54:50;1.70;;;1.60;;
579;SDS011;276;48.392;9.950;2022-12-31T01:57:21;1.60;;;1.50;;
579;SDS011;276;48.392;9.950;2022-12-31T01:59:51;1.77;;;1.60;;
579;SDS011;276;48.392;9.950;2022-12-31T02:02:18;2.37;;;1.50;;
579;SDS011;276;48.392;9.950;2022-12-31T02:04:44;1.63;;;1.53;;
579;SDS011;276;48.392;9.950;2022-12-31T02:07:10;1.90;;;1.80;;
579;SDS011;276;48.392;9.950;2022-12-31T02:09:37;1.87;;;1.77;;
579;SDS011;276;48.392;9.950;2022-12-31T02:12:06;1.33;;;1.23;;
579;SDS011;276;48.392;9.950;2022-12-31T02:14:34;2.37;;;2.13;;
579;SDS011;276;48.392;9.950;2022-12-31T02:28:24;1.83;;;1.73;;
579;SDS011;276;48.392;9.950;2022-12-31T02:31:09;1.90;;;1.80;;
579;SDS011;276;48.392;9.950;2022-12-31T02:36:23;1.87;;;1.77;;
579;SDS011;276;48.392;9.950;2022-12-31T02:38:52;2.23;;;2.13;;
579;SDS011;276;48.392;9.950;2022-12-31T02:41:23;1.70;;;1.60;;
579;SDS011;276;48.392;9.950;2022-12-31T02:44:21;1.60;;;1.50;;
579;SDS011;276;48.392;9.950;2022-12-31T03:00:12;1.50;;;1.40;;
579;SDS011;276;48.392;9.950;2022-12-31T03:02:59;1.70;;;1.60;;
579;SDS011;276;48.392;9.950;2022-12-31T03:05:29;2.03;;;1.90;;
579;SDS011;276;48.392;9.950;2022-12-31T03:07:58;2.23;;;1.83;;
579;SDS011;276;48.392;9.950;2022-12-31T03:10:24;2.40;;;2.20;;
579;SDS011;276;48.392;9.950;2022-12-31T03:12:49;2.13;;;2.03;;
579;SDS011;276;48.392;9.950;2022-12-31T03:15:31;1.80;;;1.70;;
579;SDS011;276;48.392;9.950;2022-12-31T03:18:08;1.50;;;1.40;;
579;SDS011;276;48.392;9.950;2022-12-31T03:23:25;1.90;;;1.40;;
579;SDS011;276;48.392;9.950;2022-12-31T03:25:54;1.20;;;1.10;;
579;SDS011;276;48.392;9.950;2022-12-31T03:28:24;1.33;;;1.23;;
579;SDS011;276;48.392;9.950;2022-12-31T03:30:52;2.07;;;1.70;;
579;SDS011;276;48.392;9.950;2022-12-31T03:33:20;1.50;;;1.40;;
579;SDS011;276;48.392;9.950;2022-12-31T03:35:48;1.20;;;1.10;;
579;SDS011;276;48.392;9.950;2022-12-31T03:38:16;1.40;;;1.30;;
579;SDS011;276;48.392;9.950;2022-12-31T03:40:45;1.80;;;1.60;;
579;SDS011;276;48.392;9.950;2022-12-31T03:43:13;1.70;;;1.60;;
579;SDS011;276;48.392;9.950;2022-12-31T03:45:43;1.33;;;1.23;;
579;SDS011;276;48.392;9.950;2022-12-31T03:48:13;2.50;;;1.83;;
579;SDS011;276;48.392;9.950;2022-12-31T03:50:38;1.67;;;1.53;;
579;SDS011;276;48.392;9.950;2022-12-31T03:53:04;1.97;;;1.60;;
579;SDS011;276;48.392;9.950;2022-12-31T03:55:30;1.83;;;1.67;;
579;SDS011;276;48.392;9.950;2022-12-31T03:57:55;1.73;;;1.60;;
579;SDS011;276;48.392;9.950;2022-12-31T04:00:23;1.67;;;1.20;;
579;SDS011;276;48.392;9.950;2022-12-31T04:02:54;1.87;;;1.37;;
579;SDS011;276;48.392;9.950;2022-12-31T04:05:19;1.13;;;1.00;;
579;SDS011;276;48.392;9.950;2022-12-31T04:07:52;1.20;;;1.10;;
579;SDS011;276;48.392;9.950;2022-12-31T04:10:19;1.80;;;1.10;;
579;SDS011;276;48.392;9.950;2022-12-31T04:12:45;1.60;;;1.50;;
579;SDS011;276;48.392;9.950;2022-12-31T04:15:14;1.50;;;1.27;;
579;SDS011;276;48.392;9.950;2022-12-31T04:17:42;1.60;;;1.50;;
579;SDS011;276;48.392;9.950;2022-12-31T04:20:10;0.80;;;0.80;;
579;SDS011;276;48.392;9.950;2022-12-31T04:22:38;2.53;;;1.20;;
579;SDS011;276;48.392;9.950;2022-12-31T04:25:07;1.80;;;1.07;;
579;SDS011;276;48.392;9.950;2022-12-31T04:27:39;1.07;;;1.00;;
579;SDS011;276;48.392;9.950;2022-12-31T04:30:07;1.47;;;1.40;;
579;SDS011;276;48.392;9.950;2022-12-31T04:32:34;1.30;;;1.20;;
579;SDS011;276;48.392;9.950;2022-12-31T04:35:04;1.10;;;1.03;;
579;SDS011;276;48.392;9.950;2022-12-31T04:37:33;1.37;;;0.90;;
579;SDS011;276;48.392;9.950;2022-12-31T04:39:58;1.30;;;1.13;;
579;SDS011;276;48.392;9.950;2022-12-31T04:42:24;1.83;;;0.97;;
579;SDS011;276;48.392;9.950;2022-12-31T04:44:49;1.10;;;0.90;;
579;SDS011;276;48.392;9.950;2022-12-31T04:47:15;0.73;;;0.73;;
579;SDS011;276;48.392;9.950;2022-12-31T04:49:45;1.00;;;0.97;;
579;SDS011;276;48.392;9.950;2022-12-31T04:52:11;1.07;;;0.93;;
579;SDS011;276;48.392;9.950;2022-12-31T04:54:38;1.07;;;0.97;;
579;SDS011;276;48.392;9.950;2022-12-31T04:57:04;0.80;;;0.80;;
579;SDS011;276;48.392;9.950;2022-12-31T04:59:30;1.43;;;0.90;;
579;SDS011;276;48.392;9.950;2022-12-31T05:01:58;1.40;;;1.23;;
579;SDS011;276;48.392;9.950;2022-12-31T05:04:24;1.07;;;0.97;;
579;SDS011;276;48.392;9.950;2022-12-31T05:06:49;1.40;;;1.10;;
579;SDS011;276;48.392;9.950;2022-12-31T05:09:17;1.13;;;1.03;;
579;SDS011;276;48.392;9.950;2022-12-31T05:11:48;1.93;;;1.00;;
579;SDS011;276;48.392;9.950;2022-12-31T05:14:13;3.03;;;1.20;;
579;SDS011;276;48.392;9.950;2022-12-31T05:16:42;2.00;;;0.90;;
579;SDS011;276;48.392;9.950;2022-12-31T05:19:07;1.47;;;1.37;;
579;SDS011;276;48.392;9.950;2022-12-31T05:21:33;2.43;;;0.93;;
579;SDS011;276;48.392;9.950;2022-12-31T05:24:02;0.80;;;0.80;;
579;SDS011;276;48.392;9.950;2022-12-31T05:26:29;1.03;;;1.00;;
579;SDS011;276;48.392;9.950;2022-12-31T05:28:57;0.77;;;0.77;;
579;SDS011;276;48.392;9.950;2022-12-31T05:31:25;1.13;;;1.03;;
579;SDS011;276;48.392;9.950;2022-12-31T05:33:51;1.10;;;1.00;;
579;SDS011;276;48.392;9.950;2022-12-31T05:36:19;1.80;;;1.20;;
579;SDS011;276;48.392;9.950;2022-12-31T05:38:44;1.70;;;1.00;;
579;SDS011;276;48.392;9.950;2022-12-31T05:41:10;1.10;;;1.00;;
579;SDS011;276;48.392;9.950;2022-12-31T05:43:38;1.20;;;1.20;;
579;SDS011;276;48.392;9.950;2022-12-31T05:46:04;1.57;;;1.07;;
579;SDS011;276;48.392;9.950;2022-12-31T05:48:32;1.17;;;1.07;;
579;SDS011;276;48.392;9.950;2022-12-31T05:50:57;1.67;;;1.23;;
579;SDS011;276;48.392;9.950;2022-12-31T05:53:25;1.50;;;1.40;;
579;SDS011;276;48.392;9.950;2022-12-31T05:55:51;1.20;;;1.10;;
579;SDS011;276;48.392;9.950;2022-12-31T05:58:19;2.07;;;1.67;;
579;SDS011;276;48.392;9.950;2022-12-31T06:00:44;1.63;;;1.53;;
579;SDS011;276;48.392;9.950;2022-12-31T06:03:12;2.40;;;1.47;;
579;SDS011;276;48.392;9.950;2022-12-31T06:05:41;1.60;;;1.50;;
579;SDS011;276;48.392;9.950;2022-12-31T06:08:07;2.10;;;2.00;;
579;SDS011;276;48.392;9.950;2022-12-31T06:10:34;1.87;;;1.77;;
579;SDS011;276;48.392;9.950;2022-12-31T06:13:07;1.30;;;1.20;;
579;SDS011;276;48.392;9.950;2022-12-31T06:15:35;0.93;;;0.87;;
579;SDS011;276;48.392;9.950;2022-12-31T06:18:05;1.53;;;1.27;;
579;SDS011;276;48.392;9.950;2022-12-31T06:20:31;1.27;;;1.17;;
579;SDS011;276;48.392;9.950;2022-12-31T06:23:02;1.10;;;1.10;;
579;SDS011;276;48.392;9.950;2022-12-31T06:25:28;2.70;;;2.50;;
579;SDS011;276;48.392;9.950;2022-12-31T06:27:53;1.20;;;1.20;;
579;SDS011;276;48.392;9.950;2022-12-31T06:30:21;1.50;;;1.40;;
579;SDS011;276;48.392;9.950;2022-12-31T06:32:49;1.30;;;1.20;;
579;SDS011;276;48.392;9.950;2022-12-31T06:35:15;1.10;;;1.00;;
579;SDS011;276;48.392;9.950;2022-12-31T06:37:41;1.00;;;0.90;;
579;SDS011;276;48.392;9.950;2022-12-31T06:40:06;1.30;;;1.00;;
579;SDS011;276;48.392;9.950;2022-12-31T06:42:34;1.57;;;1.47;;
579;SDS011;276;48.392;9.950;2022-12-31T06:45:05;2.30;;;1.40;;
579;SDS011;276;48.392;9.950;2022-12-31T06:47:34;1.70;;;1.30;;
579;SDS011;276;48.392;9.950;2022-12-31T06:50:01;1.17;;;1.07;;
579;SDS011;276;48.392;9.950;2022-12-31T06:52:27;1.47;;;1.27;;
579;SDS011;276;48.392;9.950;2022-12-31T06:54:55;1.77;;;1.10;;
579;SDS011;276;48.392;9.950;2022-12-31T06:57:21;1.53;;;1.40;;
579;SDS011;276;48.392;9.950;2022-12-31T06:59:47;1.83;;;1.23;;
579;SDS011;276;48.392;9.950;2022-12-31T07:07:31;1.10;;;1.10;;
579;SDS011;276;48.392;9.950;2022-12-31T07:10:14;0.70;;;0.70;;
579;SDS011;276;48.392;9.950;2022-12-31T07:18:45;4.00;;;1.33;;
579;SDS011;276;48.392;9.950;2022-12-31T07:21:26;1.33;;;1.23;;
579;SDS011;276;48.392;9.950;2022-12-31T07:23:58;1.80;;;1.10;;
579;SDS011;276;48.392;9.950;2022-12-31T07:26:34;1.90;;;1.80;;
579;SDS011;276;48.392;9.950;2022-12-31T07:40:23;1.63;;;1.53;;
579;SDS011;276;48.392;9.950;2022-12-31T07:45:53;2.83;;;1.70;;
579;SDS011;276;48.392;9.950;2022-12-31T07:48:31;1.20;;;1.20;;
579;SDS011;276;48.392;9.950;2022-12-31T07:50:56;3.53;;;1.80;;
579;SDS011;276;48.392;9.950;2022-12-31T07:53:27;1.67;;;1.47;;
579;SDS011;276;48.392;9.950;2022-12-31T07:55:56;1.47;;;1.37;;
579;SDS011;276;48.392;9.950;2022-12-31T08:01:04;2.00;;;1.90;;
579;SDS011;276;48.392;9.950;2022-12-31T08:06:23;2.10;;;1.80;;
579;SDS011;276;48.392;9.950;2022-12-31T08:12:07;1.80;;;1.70;;
579;SDS011;276;48.392;9.950;2022-12-31T08:14:34;1.30;;;1.30;;
579;SDS011;276;48.392;9.950;2022-12-31T08:17:08;2.30;;;1.40;;
579;SDS011;276;48.392;9.950;2022-12-31T08:19:36;1.93;;;1.10;;
579;SDS011;276;48.392;9.950;2022-12-31T08:30:07;2.50;;;1.50;;
579;SDS011;276;48.392;9.950;2022-12-31T08:40:27;1.67;;;1.57;;
579;SDS011;276;48.392;9.950;2022-12-31T08:43:16;1.83;;;1.50;;
579;SDS011;276;48.392;9.950;2022-12-31T08:45:56;1.80;;;1.70;;
579;SDS011;276;48.392;9.950;2022-12-31T08:48:41;2.27;;;1.70;;
579;SDS011;276;48.392;9.950;2022-12-31T08:51:11;2.03;;;1.93;;
579;SDS011;276;48.392;9.950;2022-12-31T08:54:08;2.20;;;1.97;;
579;SDS011;276;48.392;9.950;2022-12-31T08:56:39;1.30;;;1.20;;
579;SDS011;276;48.392;9.950;2022-12-31T09:07:46;1.37;;;1.27;;
579;SDS011;276;48.392;9.950;2022-12-31T09:13:11;1.57;;;1.47;;
579;SDS011;276;48.392;9.950;2022-12-31T09:16:06;1.30;;;1.30;;
579;SDS011;276;48.392;9.950;2022-12-31T09:18:51;2.60;;;1.70;;
579;SDS011;276;48.392;9.950;2022-12-31T09:21:16;1.47;;;1.37;;
579;SDS011;276;48.392;9.950;2022-12-31T09:23:45;1.40;;;1.30;;
579;SDS011;276;48.392;9.950;2022-12-31T09:37:07;1.87;;;1.63;;
579;SDS011;276;48.392;9.950;2022-12-31T09:39:44;1.53;;;1.43;;
579;SDS011;276;48.392;9.950;2022-12-31T09:47:56;1.80;;;1.70;;
579;SDS011;276;48.392;9.950;2022-12-31T09:50:47;1.53;;;1.43;;
579;SDS011;276;48.392;9.950;2022-12-31T09:53:37;2.03;;;1.53;;
579;SDS011;276;48.392;9.950;2022-12-31T10:02:00;2.93;;;1.10;;
579;SDS011;276;48.392;9.950;2022-12-31T10:10:24;1.50;;;1.23;;
579;SDS011;276;48.392;9.950;2022-12-31T10:24:22;1.57;;;1.30;;
579;SDS011;276;48.392;9.950;2022-12-31T10:32:34;1.20;;;1.10;;
579;SDS011;276;48.392;9.950;2022-12-31T10:35:00;0.70;;;0.70;;
579;SDS011;276;48.392;9.950;2022-12-31T10:45:47;1.33;;;1.23;;
579;SDS011;276;48.392;9.950;2022-12-31T11:00:15;1.20;;;0.90;;
579;SDS011;276;48.392;9.950;2022-12-31T11:08:11;1.20;;;0.87;;
579;SDS011;276;48.392;9.950;2022-12-31T11:21:17;1.00;;;0.80;;
579;SDS011;276;48.392;9.950;2022-12-31T11:24:23;1.23;;;1.03;;
579;SDS011;276;48.392;9.950;2022-12-31T11:35:14;1.03;;;1.03;;
579;SDS011;276;48.392;9.950;2022-12-31T11:37:49;1.43;;;1.20;;
579;SDS011;276;48.392;9.950;2022-12-31T11:43:21;1.00;;;0.93;;
579;SDS011;276;48.392;9.950;2022-12-31T11:46:02;1.10;;;0.97;;
579;SDS011;276;48.392;9.950;2022-12-31T11:49:06;2.00;;;1.10;;
579;SDS011;276;48.392;9.950;2022-12-31T11:59:45;1.80;;;0.80;;
579;SDS011;276;48.392;9.950;2022-12-31T12:02:25;1.10;;;1.00;;
579;SDS011;276;48.392;9.950;2022-12-31T12:04:59;1.37;;;1.00;;
579;SDS011;276;48.392;9.950;2022-12-31T12:07:26;1.23;;;1.13;;
579;SDS011;276;48.392;9.950;2022-12-31T12:09:54;0.90;;;0.90;;
579;SDS011;276;48.392;9.950;2022-12-31T12:12:24;0.87;;;0.80;;
579;SDS011;276;48.392;9.950;2022-12-31T12:14:51;1.00;;;0.90;;
579;SDS011;276;48.392;9.950;2022-12-31T12:17:36;1.27;;;0.93;;
579;SDS011;276;48.392;9.950;2022-12-31T12:20:06;1.20;;;1.10;;
579;SDS011;276;48.392;9.950;2022-12-31T12:22:52;1.27;;;0.90;;
579;SDS011;276;48.392;9.950;2022-12-31T12:25:21;1.10;;;0.90;;
579;SDS011;276;48.392;9.950;2022-12-31T12:27:49;2.03;;;1.33;;
579;SDS011;276;48.392;9.950;2022-12-31T12:30:20;1.30;;;1.00;;
579;SDS011;276;48.392;9.950;2022-12-31T12:35:25;0.70;;;0.70;;
579;SDS011;276;48.392;9.950;2022-12-31T12:38:05;1.77;;;0.93;;
579;SDS011;276;48.392;9.950;2022-12-31T12:40:36;0.97;;;0.87;;
579;SDS011;276;48.392;9.950;2022-12-31T12:43:05;1.07;;;0.70;;
579;SDS011;276;48.392;9.950;2022-12-31T12:45:56;0.90;;;0.90;;
579;SDS011;276;48.392;9.950;2022-12-31T12:48:29;1.20;;;1.10;;
579;SDS011;276;48.392;9.950;2022-12-31T12:51:06;1.63;;;0.70;;
579;SDS011;276;48.392;9.950;2022-12-31T12:56:49;1.50;;;1.40;;
579;SDS011;276;48.392;9.950;2022-12-31T13:02:33;0.90;;;0.80;;
579;SDS011;276;48.392;9.950;2022-12-31T13:05:13;1.30;;;1.20;;
579;SDS011;276;48.392;9.950;2022-12-31T13:16:06;1.07;;;0.80;;
579;SDS011;276;48.392;9.950;2022-12-31T13:21:42;1.13;;;1.10;;
579;SDS011;276;48.392;9.950;2022-12-31T13:29:32;0.90;;;0.90;;
579;SDS011;276;48.392;9.950;2022-12-31T13:32:00;0.77;;;0.77;;
579;SDS011;276;48.392;9.950;2022-12-31T13:34:35;0.80;;;0.80;;
579;SDS011;276;48.392;9.950;2022-12-31T13:37:14;0.93;;;0.93;;
579;SDS011;276;48.392;9.950;2022-12-31T13:39:45;1.47;;;0.97;;
579;SDS011;276;48.392;9.950;2022-12-31T13:44:52;0.93;;;0.93;;
579;SDS011;276;48.392;9.950;2022-12-31T13:47:34;0.87;;;0.87;;
579;SDS011;276;48.392;9.950;2022-12-31T13:50:26;1.37;;;1.13;;
579;SDS011;276;48.392;9.950;2022-12-31T13:55:37;0.80;;;0.80;;
579;SDS011;276;48.392;9.950;2022-12-31T14:03:58;0.80;;;0.80;;
579;SDS011;276;48.392;9.950;2022-12-31T14:06:44;1.13;;;1.13;;
579;SDS011;276;48.392;9.950;2022-12-31T14:09:24;1.20;;;1.10;;
579;SDS011;276;48.392;9.950;2022-12-31T14:14:56;3.43;;;1.23;;
579;SDS011;276;48.392;9.950;2022-12-31T14:23:19;1.33;;;1.23;;
579;SDS011;276;48.392;9.950;2022-12-31T14:26:01;1.60;;;1.50;;
579;SDS011;276;48.392;9.950;2022-12-31T14:39:31;1.40;;;1.30;;
579;SDS011;276;48.392;9.950;2022-12-31T14:45:03;2.53;;;1.90;;
579;SDS011;276;48.392;9.950;2022-12-31T14:50:31;2.50;;;1.77;;
579;SDS011;276;48.392;9.950;2022-12-31T14:55:30;1.67;;;1.57;;
579;SDS011;276;48.392;9.950;2022-12-31T14:58:01;2.07;;;1.87;;
579;SDS011;276;48.392;9.950;2022-12-31T15:00:51;2.90;;;1.70;;
579;SDS011;276;48.392;9.950;2022-12-31T15:16:51;2.53;;;1.97;;
579;SDS011;276;48.392;9.950;2022-12-31T15:25:19;2.87;;;2.00;;
579;SDS011;276;48.392;9.950;2022-12-31T15:27:47;2.43;;;2.23;;
579;SDS011;276;48.392;9.950;2022-12-31T15:33:19;1.48;;;1.38;;
579;SDS011;276;48.392;9.950;2022-12-31T15:35:52;2.07;;;1.80;;
579;SDS011;276;48.392;9.950;2022-12-31T15:38:35;2.60;;;2.37;;
579;SDS011;276;48.392;9.950;2022-12-31T15:41:14;4.23;;;2.13;;
579;SDS011;276;48.392;9.950;2022-12-31T15:46:27;2.43;;;1.70;;
579;SDS011;276;48.392;9.950;2022-12-31T15:48:59;2.60;;;2.07;;
579;SDS011;276;48.392;9.950;2022-12-31T15:52:17;2.00;;;1.90;;
579;SDS011;276;48.392;9.950;2022-12-31T15:54:37;4.20;;;2.90;;
579;SDS011;276;48.392;9.950;2022-12-31T15:57:22;2.43;;;2.23;;
579;SDS011;276;48.392;9.950;2022-12-31T15:59:57;2.00;;;1.90;;
579;SDS011;276;48.392;9.950;2022-12-31T16:02:26;2.90;;;2.60;;
579;SDS011;276;48.392;9.950;2022-12-31T16:04:54;2.13;;;1.90;;
579;SDS011;276;48.392;9.950;2022-12-31T16:07:23;2.50;;;2.30;;
579;SDS011;276;48.392;9.950;2022-12-31T16:09:53;1.97;;;1.87;;
579;SDS011;276;48.392;9.950;2022-12-31T16:12:24;2.03;;;1.93;;
579;SDS011;276;48.392;9.950;2022-12-31T16:14:58;2.87;;;2.00;;
579;SDS011;276;48.392;9.950;2022-12-31T16:17:33;3.30;;;2.67;;
579;SDS011;276;48.392;9.950;2022-12-31T16:20:00;2.40;;;2.20;;
579;SDS011;276;48.392;9.950;2022-12-31T16:22:48;2.80;;;2.57;;
579;SDS011;276;48.392;9.950;2022-12-31T16:25:21;3.23;;;2.73;;
579;SDS011;276;48.392;9.950;2022-12-31T16:27:49;2.77;;;2.57;;
579;SDS011;276;48.392;9.950;2022-12-31T16:32:48;2.80;;;2.60;;
579;SDS011;276;48.392;9.950;2022-12-31T16:40:39;2.03;;;1.90;;
579;SDS011;276;48.392;9.950;2022-12-31T16:43:23;2.40;;;2.20;;
579;SDS011;276;48.392;9.950;2022-12-31T16:46:06;3.60;;;3.30;;
579;SDS011;276;48.392;9.950;2022-12-31T16:51:21;2.50;;;2.30;;
579;SDS011;276;48.392;9.950;2022-12-31T16:53:53;1.77;;;1.67;;
579;SDS011;276;48.392;9.950;2022-12-31T16:56:30;2.23;;;2.13;;
579;SDS011;276;48.392;9.950;2022-12-31T16:59:02;4.57;;;3.00;;
579;SDS011;276;48.392;9.950;2022-12-31T17:01:31;5.93;;;5.43;;
579;SDS011;276;48.392;9.950;2022-12-31T17:04:05;4.90;;;4.17;;
579;SDS011;276;48.392;9.950;2022-12-31T17:06:43;3.83;;;3.40;;
579;SDS011;276;48.392;9.950;2022-12-31T17:09:15;8.33;;;5.77;;
579;SDS011;276;48.392;9.950;2022-12-31T17:11:52;2.43;;;2.33;;
579;SDS011;276;48.392;9.950;2022-12-31T17:14:23;3.53;;;2.77;;
579;SDS011;276;48.392;9.950;2022-12-31T17:19:46;2.00;;;1.90;;
579;SDS011;276;48.392;9.950;2022-12-31T17:25:27;2.83;;;2.40;;
579;SDS011;276;48.392;9.950;2022-12-31T17:28:01;2.30;;;2.10;;
579;SDS011;276;48.392;9.950;2022-12-31T17:33:01;5.20;;;2.47;;
579;SDS011;276;48.392;9.950;2022-12-31T17:35:39;2.27;;;2.07;;
579;SDS011;276;48.392;9.950;2022-12-31T17:41:31;3.27;;;2.93;;
579;SDS011;276;48.392;9.950;2022-12-31T17:43:45;3.70;;;2.00;;
579;SDS011;276;48.392;9.950;2022-12-31T17:46:20;3.23;;;2.30;;
579;SDS011;276;48.392;9.950;2022-12-31T17:48:58;4.50;;;2.40;;
579;SDS011;276;48.392;9.950;2022-12-31T17:51:26;2.80;;;2.57;;
579;SDS011;276;48.392;9.950;2022-12-31T17:53:53;6.43;;;3.80;;
579;SDS011;276;48.392;9.950;2022-12-31T17:56:24;2.67;;;2.27;;
579;SDS011;276;48.392;9.950;2022-12-31T17:58:52;3.23;;;2.93;;
579;SDS011;276;48.392;9.950;2022-12-31T18:01:24;4.67;;;3.70;;
579;SDS011;276;48.392;9.950;2022-12-31T18:03:52;3.90;;;3.43;;
579;SDS011;276;48.392;9.950;2022-12-31T18:06:18;3.20;;;2.97;;
579;SDS011;276;48.392;9.950;2022-12-31T18:08:46;3.77;;;3.33;;
579;SDS011;276;48.392;9.950;2022-12-31T18:11:18;3.13;;;2.83;;
579;SDS011;276;48.392;9.950;2022-12-31T18:13:46;3.27;;;2.97;;
579;SDS011;276;48.392;9.950;2022-12-31T18:16:12;3.50;;;3.20;;
579;SDS011;276;48.392;9.950;2022-12-31T18:18:39;4.60;;;3.10;;
579;SDS011;276;48.392;9.950;2022-12-31T18:21:51;3.57;;;3.33;;
579;SDS011;276;48.392;9.950;2022-12-31T18:23:59;3.87;;;3.57;;
579;SDS011;276;48.392;9.950;2022-12-31T18:26:30;6.53;;;4.80;;
579;SDS011;276;48.392;9.950;2022-12-31T18:29:04;4.70;;;4.40;;
579;SDS011;276;48.392;9.950;2022-12-31T18:31:40;3.40;;;3.20;;
579;SDS011;276;48.392;9.950;2022-12-31T18:34:11;4.13;;;3.83;;
579;SDS011;276;48.392;9.950;2022-12-31T18:36:41;4.40;;;4.00;;
579;SDS011;276;48.392;9.950;2022-12-31T18:39:09;6.27;;;4.60;;
579;SDS011;276;48.392;9.950;2022-12-31T18:44:03;5.30;;;4.80;;
579;SDS011;276;48.392;9.950;2022-12-31T18:46:33;5.13;;;4.63;;
579;SDS011;276;48.392;9.950;2022-12-31T18:48:59;4.33;;;4.03;;
579;SDS011;276;48.392;9.950;2022-12-31T18:51:27;4.40;;;3.43;;
579;SDS011;276;48.392;9.950;2022-12-31T18:53:53;3.67;;;3.37;;
579;SDS011;276;48.392;9.950;2022-12-31T18:56:19;4.73;;;4.33;;
579;SDS011;276;48.392;9.950;2022-12-31T18:58:45;4.20;;;3.80;;
579;SDS011;276;48.392;9.950;2022-12-31T19:03:51;3.53;;;3.23;;
579;SDS011;276;48.392;9.950;2022-12-31T19:06:25;3.00;;;2.80;;
579;SDS011;276;48.392;9.950;2022-12-31T19:08:55;3.30;;;3.00;;
579;SDS011;276;48.392;9.950;2022-12-31T19:11:23;5.70;;;3.17;;
579;SDS011;276;48.392;9.950;2022-12-31T19:13:49;3.10;;;2.80;;
579;SDS011;276;48.392;9.950;2022-12-31T19:16:17;4.37;;;3.17;;
579;SDS011;276;48.392;9.950;2022-12-31T19:18:43;3.37;;;3.03;;
579;SDS011;276;48.392;9.950;2022-12-31T19:21:11;3.10;;;2.73;;
579;SDS011;276;48.392;9.950;2022-12-31T19:23:40;3.30;;;3.00;;
579;SDS011;276;48.392;9.950;2022-12-31T19:26:12;2.80;;;2.60;;
579;SDS011;276;48.392;9.950;2022-12-31T19:28:40;3.30;;;3.10;;
579;SDS011;276;48.392;9.950;2022-12-31T19:31:11;3.60;;;3.30;;
579;SDS011;276;48.392;9.950;2022-12-31T19:33:43;4.10;;;3.70;;
579;SDS011;276;48.392;9.950;2022-12-31T19:36:14;2.70;;;2.50;;
579;SDS011;276;48.392;9.950;2022-12-31T19:38:41;2.53;;;2.33;;
579;SDS011;276;48.392;9.950;2022-12-31T19:41:17;3.47;;;3.17;;
579;SDS011;276;48.392;9.950;2022-12-31T19:43:46;3.60;;;3.30;;
579;SDS011;276;48.392;9.950;2022-12-31T19:46:17;3.00;;;2.80;;
579;SDS011;276;48.392;9.950;2022-12-31T19:48:48;2.90;;;2.70;;
579;SDS011;276;48.392;9.950;2022-12-31T19:51:15;3.03;;;2.73;;
579;SDS011;276;48.392;9.950;2022-12-31T19:53:43;3.97;;;3.10;;
579;SDS011;276;48.392;9.950;2022-12-31T19:56:13;2.90;;;2.70;;
579;SDS011;276;48.392;9.950;2022-12-31T19:58:43;3.43;;;2.40;;
579;SDS011;276;48.392;9.950;2022-12-31T20:01:17;3.30;;;3.10;;
579;SDS011;276;48.392;9.950;2022-12-31T20:03:49;3.10;;;2.90;;
579;SDS011;276;48.392;9.950;2022-12-31T20:06:18;3.43;;;3.13;;
579;SDS011;276;48.392;9.950;2022-12-31T20:08:45;4.80;;;4.40;;
579;SDS011;276;48.392;9.950;2022-12-31T20:11:15;4.47;;;4.00;;
579;SDS011;276;48.392;9.950;2022-12-31T20:13:42;4.60;;;3.90;;
579;SDS011;276;48.392;9.950;2022-12-31T20:16:12;4.87;;;4.10;;
579;SDS011;276;48.392;9.950;2022-12-31T20:18:44;3.87;;;3.57;;
579;SDS011;276;48.392;9.950;2022-12-31T20:21:15;4.50;;;4.17;;
579;SDS011;276;48.392;9.950;2022-12-31T20:23:49;6.27;;;5.10;;
579;SDS011;276;48.392;9.950;2022-12-31T20:26:17;4.40;;;4.00;;
579;SDS011;276;48.392;9.950;2022-12-31T20:28:46;5.37;;;4.87;;
579;SDS011;276;48.392;9.950;2022-12-31T20:31:15;5.23;;;4.73;;
579;SDS011;276;48.392;9.950;2022-12-31T20:33:46;5.40;;;3.60;;
579;SDS011;276;48.392;9.950;2022-12-31T20:36:15;3.40;;;3.10;;
579;SDS011;276;48.392;9.950;2022-12-31T20:38:44;3.80;;;3.43;;
579;SDS011;276;48.392;9.950;2022-12-31T20:41:15;3.03;;;2.83;;
579;SDS011;276;48.392;9.950;2022-12-31T20:43:45;3.07;;;2.87;;
579;SDS011;276;48.392;9.950;2022-12-31T20:46:12;3.73;;;3.43;;
579;SDS011;276;48.392;9.950;2022-12-31T20:48:44;5.10;;;3.87;;
579;SDS011;276;48.392;9.950;2022-12-31T20:51:11;3.90;;;3.60;;
579;SDS011;276;48.392;9.950;2022-12-31T20:53:47;3.80;;;2.90;;
579;SDS011;276;48.392;9.950;2022-12-31T20:56:16;3.00;;;2.80;;
579;SDS011;276;48.392;9.950;2022-12-31T20:58:47;2.67;;;2.47;;
579;SDS011;276;48.392;9.950;2022-12-31T21:01:16;3.20;;;2.90;;
579;SDS011;276;48.392;9.950;2022-12-31T21:03:43;2.70;;;2.50;;
579;SDS011;276;48.392;9.950;2022-12-31T21:06:12;3.90;;;2.70;;
579;SDS011;276;48.392;9.950;2022-12-31T21:08:41;3.33;;;3.03;;
579;SDS011;276;48.392;9.950;2022-12-31T21:11:07;3.60;;;3.30;;
579;SDS011;276;48.392;9.950;2022-12-31T21:13:54;2.80;;;2.60;;
579;SDS011;276;48.392;9.950;2022-12-31T21:16:23;2.70;;;2.50;;
579;SDS011;276;48.392;9.950;2022-12-31T21:18:50;3.17;;;2.97;;
579;SDS011;276;48.392;9.950;2022-12-31T21:21:18;3.80;;;3.10;;
579;SDS011;276;48.392;9.950;2022-12-31T21:23:44;3.00;;;2.80;;
579;SDS011;276;48.392;9.950;2022-12-31T21:26:12;3.83;;;3.57;;